sensor_id;sensor_type;location;lat;lon;timestamp;P1;durP1;ratioP1;P2;durP2;ratioP2
36457;SDS011;22480;50.546;12.292;2024-03-08T00:00:07;67.87;;;31.80;;
36457;SDS011;22480;50.546;12.292;2024-03-08T00:02:39;61.03;;;29.43;;
36457;SDS011;22480;50.546;12.292;2024-03-08T00:05:05;59.90;;;30.17;;
36457;SDS011;22480;50.546;12.292;2024-03-08T00:07:33;64.63;;;31.47;;
36457;SDS011;22480;50.546;12.292;2024-03-08T00:10:03;61.17;;;31.30;;
36457;SDS011;22480;50.546;12.292;2024-03-08T00:12:36;66.67;;;31.10;;
36457;SDS011;22480;50.546;12.292;2024-03-08T00:15:09;70.30;;;32.87;;
36457;SDS011;22480;50.546;12.292;2024-03-08T00:17:39;62.70;;;30.90;;
36457;SDS011;22480;50.546;12.292;2024-03-08T00:20:06;67.20;;;31.27;;
36457;SDS011;22480;50.546;12.292;2024-03-08T00:22:36;73.53;;;33.40;;
36457;SDS011;22480;50.546;12.292;2024-03-08T00:25:03;70.47;;;33.28;;
36457;SDS011;22480;50.546;12.292;2024-03-08T00:27:30;75.57;;;33.70;;
36457;SDS011;22480;50.546;12.292;2024-03-08T00:29:57;64.10;;;31.87;;
36457;SDS011;22480;50.546;12.292;2024-03-08T00:32:22;71.00;;;34.27;;
36457;SDS011;22480;50.546;12.292;2024-03-08T00:34:52;63.72;;;27.98;;
36457;SDS011;22480;50.546;12.292;2024-03-08T00:37:21;67.27;;;30.47;;
36457;SDS011;22480;50.546;12.292;2024-03-08T00:39:50;58.20;;;28.20;;
36457;SDS011;22480;50.546;12.292;2024-03-08T00:42:16;65.67;;;31.10;;
36457;SDS011;22480;50.546;12.292;2024-03-08T00:44:42;72.33;;;32.20;;
36457;SDS011;22480;50.546;12.292;2024-03-08T00:47:07;75.03;;;33.80;;
36457;SDS011;22480;50.546;12.292;2024-03-08T00:49:33;72.43;;;34.33;;
36457;SDS011;22480;50.546;12.292;2024-03-08T00:51:59;73.03;;;32.67;;
36457;SDS011;22480;50.546;12.292;2024-03-08T00:54:25;71.57;;;34.10;;
36457;SDS011;22480;50.546;12.292;2024-03-08T00:56:51;70.27;;;30.40;;
36457;SDS011;22480;50.546;12.292;2024-03-08T00:59:16;64.13;;;31.10;;
36457;SDS011;22480;50.546;12.292;2024-03-08T01:01:42;62.67;;;29.47;;
36457;SDS011;22480;50.546;12.292;2024-03-08T01:04:09;74.57;;;32.00;;
36457;SDS011;22480;50.546;12.292;2024-03-08T01:06:35;70.33;;;31.37;;
36457;SDS011;22480;50.546;12.292;2024-03-08T01:09:02;74.13;;;32.47;;
36457;SDS011;22480;50.546;12.292;2024-03-08T01:11:28;65.53;;;31.53;;
36457;SDS011;22480;50.546;12.292;2024-03-08T01:13:54;67.17;;;32.17;;
36457;SDS011;22480;50.546;12.292;2024-03-08T01:16:19;69.97;;;34.73;;
36457;SDS011;22480;50.546;12.292;2024-03-08T01:18:46;75.23;;;34.13;;
36457;SDS011;22480;50.546;12.292;2024-03-08T01:21:12;73.63;;;33.67;;
36457;SDS011;22480;50.546;12.292;2024-03-08T01:23:56;76.53;;;35.83;;
36457;SDS011;22480;50.546;12.292;2024-03-08T01:26:22;72.13;;;34.67;;
36457;SDS011;22480;50.546;12.292;2024-03-08T01:28:48;74.57;;;33.63;;
36457;SDS011;22480;50.546;12.292;2024-03-08T01:31:14;76.97;;;31.67;;
36457;SDS011;22480;50.546;12.292;2024-03-08T01:33:41;71.30;;;33.17;;
36457;SDS011;22480;50.546;12.292;2024-03-08T01:36:06;71.87;;;32.10;;
36457;SDS011;22480;50.546;12.292;2024-03-08T01:38:32;71.17;;;31.93;;
36457;SDS011;22480;50.546;12.292;2024-03-08T01:40:58;72.63;;;30.17;;
36457;SDS011;22480;50.546;12.292;2024-03-08T01:43:28;70.87;;;31.13;;
36457;SDS011;22480;50.546;12.292;2024-03-08T01:45:55;66.07;;;30.30;;
36457;SDS011;22480;50.546;12.292;2024-03-08T01:48:23;70.53;;;32.57;;
36457;SDS011;22480;50.546;12.292;2024-03-08T01:50:50;69.97;;;31.43;;
36457;SDS011;22480;50.546;12.292;2024-03-08T01:53:17;74.27;;;32.63;;
36457;SDS011;22480;50.546;12.292;2024-03-08T01:55:44;72.13;;;31.70;;
36457;SDS011;22480;50.546;12.292;2024-03-08T01:58:11;73.77;;;32.77;;
36457;SDS011;22480;50.546;12.292;2024-03-08T02:00:40;65.83;;;32.57;;
36457;SDS011;22480;50.546;12.292;2024-03-08T02:03:09;74.67;;;32.47;;
36457;SDS011;22480;50.546;12.292;2024-03-08T02:05:35;71.80;;;34.50;;
36457;SDS011;22480;50.546;12.292;2024-03-08T02:08:03;71.97;;;32.70;;
36457;SDS011;22480;50.546;12.292;2024-03-08T02:10:32;70.63;;;31.23;;
36457;SDS011;22480;50.546;12.292;2024-03-08T02:12:59;64.40;;;29.07;;
36457;SDS011;22480;50.546;12.292;2024-03-08T02:18:15;63.33;;;30.13;;
36457;SDS011;22480;50.546;12.292;2024-03-08T02:20:42;65.90;;;29.80;;
36457;SDS011;22480;50.546;12.292;2024-03-08T02:23:08;66.23;;;31.03;;
36457;SDS011;22480;50.546;12.292;2024-03-08T02:25:34;65.10;;;31.03;;
36457;SDS011;22480;50.546;12.292;2024-03-08T02:28:00;62.30;;;30.43;;
36457;SDS011;22480;50.546;12.292;2024-03-08T02:30:26;65.60;;;29.23;;
36457;SDS011;22480;50.546;12.292;2024-03-08T02:32:54;67.03;;;31.03;;
36457;SDS011;22480;50.546;12.292;2024-03-08T02:35:21;67.73;;;29.90;;
36457;SDS011;22480;50.546;12.292;2024-03-08T02:37:46;63.27;;;31.33;;
36457;SDS011;22480;50.546;12.292;2024-03-08T02:40:13;70.93;;;31.83;;
36457;SDS011;22480;50.546;12.292;2024-03-08T02:42:39;70.97;;;30.80;;
36457;SDS011;22480;50.546;12.292;2024-03-08T02:45:05;67.80;;;29.37;;
36457;SDS011;22480;50.546;12.292;2024-03-08T02:47:31;67.03;;;29.60;;
36457;SDS011;22480;50.546;12.292;2024-03-08T02:49:57;65.93;;;29.70;;
36457;SDS011;22480;50.546;12.292;2024-03-08T02:52:23;64.13;;;30.03;;
36457;SDS011;22480;50.546;12.292;2024-03-08T02:54:48;66.90;;;30.73;;
36457;SDS011;22480;50.546;12.292;2024-03-08T02:57:15;65.63;;;29.77;;
36457;SDS011;22480;50.546;12.292;2024-03-08T02:59:41;68.67;;;29.67;;
36457;SDS011;22480;50.546;12.292;2024-03-08T03:02:07;65.93;;;32.30;;
36457;SDS011;22480;50.546;12.292;2024-03-08T03:04:34;73.23;;;30.77;;
36457;SDS011;22480;50.546;12.292;2024-03-08T03:07:00;63.57;;;29.80;;
36457;SDS011;22480;50.546;12.292;2024-03-08T03:09:26;60.30;;;30.00;;
36457;SDS011;22480;50.546;12.292;2024-03-08T03:11:55;72.37;;;30.30;;
36457;SDS011;22480;50.546;12.292;2024-03-08T03:14:22;65.37;;;29.50;;
36457;SDS011;22480;50.546;12.292;2024-03-08T03:16:47;65.70;;;29.73;;
36457;SDS011;22480;50.546;12.292;2024-03-08T03:19:13;59.00;;;28.77;;
36457;SDS011;22480;50.546;12.292;2024-03-08T03:21:40;62.73;;;29.63;;
36457;SDS011;22480;50.546;12.292;2024-03-08T03:24:08;64.20;;;30.60;;
36457;SDS011;22480;50.546;12.292;2024-03-08T03:26:40;65.10;;;29.67;;
36457;SDS011;22480;50.546;12.292;2024-03-08T03:29:06;64.30;;;29.13;;
36457;SDS011;22480;50.546;12.292;2024-03-08T03:31:33;60.47;;;27.70;;
36457;SDS011;22480;50.546;12.292;2024-03-08T03:34:00;58.10;;;27.40;;
36457;SDS011;22480;50.546;12.292;2024-03-08T03:36:28;63.17;;;29.00;;
36457;SDS011;22480;50.546;12.292;2024-03-08T03:38:58;52.40;;;26.27;;
36457;SDS011;22480;50.546;12.292;2024-03-08T03:41:35;58.67;;;26.57;;
36457;SDS011;22480;50.546;12.292;2024-03-08T03:44:01;57.63;;;27.10;;
36457;SDS011;22480;50.546;12.292;2024-03-08T03:46:27;55.73;;;27.80;;
36457;SDS011;22480;50.546;12.292;2024-03-08T03:48:56;54.93;;;25.23;;
36457;SDS011;22480;50.546;12.292;2024-03-08T03:51:22;54.63;;;25.87;;
36457;SDS011;22480;50.546;12.292;2024-03-08T03:53:47;63.07;;;28.00;;
36457;SDS011;22480;50.546;12.292;2024-03-08T03:56:13;58.70;;;28.40;;
36457;SDS011;22480;50.546;12.292;2024-03-08T03:58:39;57.80;;;28.73;;
36457;SDS011;22480;50.546;12.292;2024-03-08T04:01:05;55.23;;;28.33;;
36457;SDS011;22480;50.546;12.292;2024-03-08T04:03:30;53.90;;;24.43;;
36457;SDS011;22480;50.546;12.292;2024-03-08T04:05:56;64.03;;;28.20;;
36457;SDS011;22480;50.546;12.292;2024-03-08T04:08:22;61.23;;;28.07;;
36457;SDS011;22480;50.546;12.292;2024-03-08T04:10:51;65.63;;;29.90;;
36457;SDS011;22480;50.546;12.292;2024-03-08T04:13:17;63.23;;;28.73;;
36457;SDS011;22480;50.546;12.292;2024-03-08T04:15:42;61.97;;;27.90;;
36457;SDS011;22480;50.546;12.292;2024-03-08T04:18:13;63.90;;;28.30;;
36457;SDS011;22480;50.546;12.292;2024-03-08T04:20:39;65.93;;;31.43;;
36457;SDS011;22480;50.546;12.292;2024-03-08T04:23:05;64.33;;;30.97;;
36457;SDS011;22480;50.546;12.292;2024-03-08T04:25:31;67.90;;;31.00;;
36457;SDS011;22480;50.546;12.292;2024-03-08T04:27:57;67.20;;;30.33;;
36457;SDS011;22480;50.546;12.292;2024-03-08T04:30:23;66.10;;;29.53;;
36457;SDS011;22480;50.546;12.292;2024-03-08T04:32:49;56.87;;;28.23;;
36457;SDS011;22480;50.546;12.292;2024-03-08T04:35:15;65.03;;;30.43;;
36457;SDS011;22480;50.546;12.292;2024-03-08T04:37:41;63.47;;;30.03;;
36457;SDS011;22480;50.546;12.292;2024-03-08T04:40:07;60.70;;;29.57;;
36457;SDS011;22480;50.546;12.292;2024-03-08T04:42:33;61.10;;;28.90;;
36457;SDS011;22480;50.546;12.292;2024-03-08T04:44:59;61.47;;;29.83;;
36457;SDS011;22480;50.546;12.292;2024-03-08T04:47:25;69.57;;;30.03;;
36457;SDS011;22480;50.546;12.292;2024-03-08T04:49:51;77.53;;;31.73;;
36457;SDS011;22480;50.546;12.292;2024-03-08T04:52:17;72.53;;;30.60;;
36457;SDS011;22480;50.546;12.292;2024-03-08T04:54:43;72.10;;;31.33;;
36457;SDS011;22480;50.546;12.292;2024-03-08T04:57:10;69.50;;;32.17;;
36457;SDS011;22480;50.546;12.292;2024-03-08T04:59:36;72.37;;;31.57;;
36457;SDS011;22480;50.546;12.292;2024-03-08T05:02:02;60.10;;;28.70;;
36457;SDS011;22480;50.546;12.292;2024-03-08T05:04:28;67.80;;;30.47;;
36457;SDS011;22480;50.546;12.292;2024-03-08T05:06:54;69.20;;;31.47;;
36457;SDS011;22480;50.546;12.292;2024-03-08T05:09:20;61.17;;;27.67;;
36457;SDS011;22480;50.546;12.292;2024-03-08T05:11:46;66.90;;;29.47;;
36457;SDS011;22480;50.546;12.292;2024-03-08T05:14:13;64.97;;;31.40;;
36457;SDS011;22480;50.546;12.292;2024-03-08T05:16:45;62.38;;;28.73;;
36457;SDS011;22480;50.546;12.292;2024-03-08T05:19:18;69.17;;;30.17;;
36457;SDS011;22480;50.546;12.292;2024-03-08T05:21:44;63.58;;;29.08;;
36457;SDS011;22480;50.546;12.292;2024-03-08T05:24:11;65.50;;;28.87;;
36457;SDS011;22480;50.546;12.292;2024-03-08T05:26:38;63.20;;;28.73;;
36457;SDS011;22480;50.546;12.292;2024-03-08T05:29:04;58.30;;;26.67;;
36457;SDS011;22480;50.546;12.292;2024-03-08T05:31:31;62.10;;;27.17;;
36457;SDS011;22480;50.546;12.292;2024-03-08T05:34:09;53.57;;;25.60;;
36457;SDS011;22480;50.546;12.292;2024-03-08T05:36:35;63.10;;;29.10;;
36457;SDS011;22480;50.546;12.292;2024-03-08T05:39:01;63.43;;;30.20;;
36457;SDS011;22480;50.546;12.292;2024-03-08T05:41:26;67.83;;;30.03;;
36457;SDS011;22480;50.546;12.292;2024-03-08T05:43:52;63.80;;;29.70;;
36457;SDS011;22480;50.546;12.292;2024-03-08T05:46:18;61.03;;;28.60;;
36457;SDS011;22480;50.546;12.292;2024-03-08T05:48:44;55.37;;;25.97;;
36457;SDS011;22480;50.546;12.292;2024-03-08T05:51:10;57.53;;;27.97;;
36457;SDS011;22480;50.546;12.292;2024-03-08T05:53:37;57.33;;;27.93;;
36457;SDS011;22480;50.546;12.292;2024-03-08T05:56:03;58.43;;;27.37;;
36457;SDS011;22480;50.546;12.292;2024-03-08T05:58:28;62.33;;;28.47;;
36457;SDS011;22480;50.546;12.292;2024-03-08T06:00:57;62.23;;;29.13;;
36457;SDS011;22480;50.546;12.292;2024-03-08T06:03:23;69.20;;;31.80;;
36457;SDS011;22480;50.546;12.292;2024-03-08T06:05:48;57.83;;;26.90;;
36457;SDS011;22480;50.546;12.292;2024-03-08T06:08:14;65.00;;;30.20;;
36457;SDS011;22480;50.546;12.292;2024-03-08T06:10:40;65.53;;;31.37;;
36457;SDS011;22480;50.546;12.292;2024-03-08T06:13:06;60.37;;;30.37;;
36457;SDS011;22480;50.546;12.292;2024-03-08T06:15:32;59.30;;;30.13;;
36457;SDS011;22480;50.546;12.292;2024-03-08T06:17:58;58.80;;;30.50;;
36457;SDS011;22480;50.546;12.292;2024-03-08T06:20:23;56.10;;;27.63;;
36457;SDS011;22480;50.546;12.292;2024-03-08T06:22:51;55.83;;;28.40;;
36457;SDS011;22480;50.546;12.292;2024-03-08T06:25:17;60.80;;;27.20;;
36457;SDS011;22480;50.546;12.292;2024-03-08T06:27:43;56.47;;;27.83;;
36457;SDS011;22480;50.546;12.292;2024-03-08T06:30:11;55.37;;;28.33;;
36457;SDS011;22480;50.546;12.292;2024-03-08T06:32:37;56.67;;;29.03;;
36457;SDS011;22480;50.546;12.292;2024-03-08T06:35:05;60.27;;;31.37;;
36457;SDS011;22480;50.546;12.292;2024-03-08T06:37:32;52.53;;;28.67;;
36457;SDS011;22480;50.546;12.292;2024-03-08T06:39:58;52.80;;;26.93;;
36457;SDS011;22480;50.546;12.292;2024-03-08T06:42:24;56.93;;;28.43;;
36457;SDS011;22480;50.546;12.292;2024-03-08T06:44:49;52.03;;;28.80;;
36457;SDS011;22480;50.546;12.292;2024-03-08T06:47:15;45.43;;;26.70;;
36457;SDS011;22480;50.546;12.292;2024-03-08T06:49:44;46.07;;;25.07;;
36457;SDS011;22480;50.546;12.292;2024-03-08T06:52:10;40.53;;;23.37;;
36457;SDS011;22480;50.546;12.292;2024-03-08T06:54:36;46.77;;;24.83;;
36457;SDS011;22480;50.546;12.292;2024-03-08T06:57:05;43.33;;;25.43;;
36457;SDS011;22480;50.546;12.292;2024-03-08T06:59:31;45.03;;;26.27;;
36457;SDS011;22480;50.546;12.292;2024-03-08T07:01:57;46.27;;;26.20;;
36457;SDS011;22480;50.546;12.292;2024-03-08T07:04:25;46.33;;;25.93;;
36457;SDS011;22480;50.546;12.292;2024-03-08T07:06:54;39.58;;;24.13;;
36457;SDS011;22480;50.546;12.292;2024-03-08T07:09:23;48.60;;;27.27;;
36457;SDS011;22480;50.546;12.292;2024-03-08T07:11:50;45.67;;;25.43;;
36457;SDS011;22480;50.546;12.292;2024-03-08T07:14:22;47.80;;;27.97;;
36457;SDS011;22480;50.546;12.292;2024-03-08T07:16:49;39.43;;;24.10;;
36457;SDS011;22480;50.546;12.292;2024-03-08T07:19:15;42.97;;;24.97;;
36457;SDS011;22480;50.546;12.292;2024-03-08T07:21:42;39.93;;;24.90;;
36457;SDS011;22480;50.546;12.292;2024-03-08T07:24:12;38.83;;;22.30;;
36457;SDS011;22480;50.546;12.292;2024-03-08T07:26:43;41.10;;;23.57;;
36457;SDS011;22480;50.546;12.292;2024-03-08T07:29:09;41.00;;;25.13;;
36457;SDS011;22480;50.546;12.292;2024-03-08T07:31:35;38.80;;;25.30;;
36457;SDS011;22480;50.546;12.292;2024-03-08T07:34:15;38.85;;;23.63;;
36457;SDS011;22480;50.546;12.292;2024-03-08T07:36:41;38.30;;;22.67;;
36457;SDS011;22480;50.546;12.292;2024-03-08T07:39:07;35.38;;;23.85;;
36457;SDS011;22480;50.546;12.292;2024-03-08T07:41:39;43.30;;;24.27;;
36457;SDS011;22480;50.546;12.292;2024-03-08T07:44:06;31.92;;;22.08;;
36457;SDS011;22480;50.546;12.292;2024-03-08T07:46:32;36.88;;;22.75;;
36457;SDS011;22480;50.546;12.292;2024-03-08T07:48:59;39.72;;;22.95;;
36457;SDS011;22480;50.546;12.292;2024-03-08T07:51:25;37.70;;;23.58;;
36457;SDS011;22480;50.546;12.292;2024-03-08T07:53:51;40.72;;;24.17;;
36457;SDS011;22480;50.546;12.292;2024-03-08T07:56:16;38.40;;;24.15;;
36457;SDS011;22480;50.546;12.292;2024-03-08T07:58:43;33.75;;;22.33;;
36457;SDS011;22480;50.546;12.292;2024-03-08T08:01:19;34.53;;;21.67;;
36457;SDS011;22480;50.546;12.292;2024-03-08T08:03:45;40.38;;;24.25;;
36457;SDS011;22480;50.546;12.292;2024-03-08T08:06:14;36.78;;;24.23;;
36457;SDS011;22480;50.546;12.292;2024-03-08T08:08:43;40.50;;;22.70;;
36457;SDS011;22480;50.546;12.292;2024-03-08T08:11:09;38.78;;;23.45;;
36457;SDS011;22480;50.546;12.292;2024-03-08T08:13:36;36.63;;;23.53;;
36457;SDS011;22480;50.546;12.292;2024-03-08T08:16:04;36.80;;;21.40;;
36457;SDS011;22480;50.546;12.292;2024-03-08T08:18:31;37.70;;;22.67;;
36457;SDS011;22480;50.546;12.292;2024-03-08T08:20:58;40.63;;;22.90;;
36457;SDS011;22480;50.546;12.292;2024-03-08T08:23:25;37.58;;;22.60;;
36457;SDS011;22480;50.546;12.292;2024-03-08T08:25:51;41.67;;;24.23;;
36457;SDS011;22480;50.546;12.292;2024-03-08T08:28:17;39.30;;;24.30;;
36457;SDS011;22480;50.546;12.292;2024-03-08T08:30:46;36.70;;;23.95;;
36457;SDS011;22480;50.546;12.292;2024-03-08T08:33:12;40.33;;;22.65;;
36457;SDS011;22480;50.546;12.292;2024-03-08T08:35:40;31.75;;;20.58;;
36457;SDS011;22480;50.546;12.292;2024-03-08T08:38:06;39.13;;;23.48;;
36457;SDS011;22480;50.546;12.292;2024-03-08T08:40:34;37.53;;;22.90;;
36457;SDS011;22480;50.546;12.292;2024-03-08T08:43:02;32.30;;;20.63;;
36457;SDS011;22480;50.546;12.292;2024-03-08T08:45:30;31.15;;;20.42;;
36457;SDS011;22480;50.546;12.292;2024-03-08T08:47:56;36.42;;;20.95;;
36457;SDS011;22480;50.546;12.292;2024-03-08T08:50:22;32.85;;;20.75;;
36457;SDS011;22480;50.546;12.292;2024-03-08T08:52:48;37.53;;;20.90;;
36457;SDS011;22480;50.546;12.292;2024-03-08T08:55:14;32.42;;;20.20;;
36457;SDS011;22480;50.546;12.292;2024-03-08T08:57:40;34.53;;;21.35;;
36457;SDS011;22480;50.546;12.292;2024-03-08T09:00:07;35.72;;;20.77;;
36457;SDS011;22480;50.546;12.292;2024-03-08T09:02:34;33.35;;;19.95;;
36457;SDS011;22480;50.546;12.292;2024-03-08T09:05:00;29.95;;;19.33;;
36457;SDS011;22480;50.546;12.292;2024-03-08T09:07:28;32.20;;;20.20;;
36457;SDS011;22480;50.546;12.292;2024-03-08T09:09:54;29.52;;;20.25;;
36457;SDS011;22480;50.546;12.292;2024-03-08T09:12:23;34.58;;;20.75;;
36457;SDS011;22480;50.546;12.292;2024-03-08T09:14:49;28.00;;;18.45;;
36457;SDS011;22480;50.546;12.292;2024-03-08T09:17:15;31.83;;;19.08;;
36457;SDS011;22480;50.546;12.292;2024-03-08T09:19:45;25.80;;;17.40;;
36457;SDS011;22480;50.546;12.292;2024-03-08T09:22:12;31.35;;;18.48;;
36457;SDS011;22480;50.546;12.292;2024-03-08T09:24:38;25.05;;;18.08;;
36457;SDS011;22480;50.546;12.292;2024-03-08T09:27:04;27.23;;;17.73;;
36457;SDS011;22480;50.546;12.292;2024-03-08T09:29:30;23.35;;;16.42;;
36457;SDS011;22480;50.546;12.292;2024-03-08T09:31:56;22.85;;;16.27;;
36457;SDS011;22480;50.546;12.292;2024-03-08T09:34:21;24.13;;;16.65;;
36457;SDS011;22480;50.546;12.292;2024-03-08T09:36:47;22.50;;;16.35;;
36457;SDS011;22480;50.546;12.292;2024-03-08T09:39:13;23.35;;;16.35;;
36457;SDS011;22480;50.546;12.292;2024-03-08T09:41:42;23.60;;;16.52;;
36457;SDS011;22480;50.546;12.292;2024-03-08T09:44:09;21.75;;;16.95;;
36457;SDS011;22480;50.546;12.292;2024-03-08T09:46:34;19.10;;;15.20;;
36457;SDS011;22480;50.546;12.292;2024-03-08T09:49:01;20.83;;;15.18;;
36457;SDS011;22480;50.546;12.292;2024-03-08T09:51:27;20.50;;;15.55;;
36457;SDS011;22480;50.546;12.292;2024-03-08T09:53:54;16.55;;;13.65;;
36457;SDS011;22480;50.546;12.292;2024-03-08T09:56:21;20.23;;;14.70;;
36457;SDS011;22480;50.546;12.292;2024-03-08T09:58:48;16.80;;;13.07;;
36457;SDS011;22480;50.546;12.292;2024-03-08T10:01:40;16.30;;;13.10;;
36457;SDS011;22480;50.546;12.292;2024-03-08T10:04:06;15.75;;;13.23;;
36457;SDS011;22480;50.546;12.292;2024-03-08T10:06:32;15.02;;;12.25;;
36457;SDS011;22480;50.546;12.292;2024-03-08T10:08:58;15.68;;;12.98;;
36457;SDS011;22480;50.546;12.292;2024-03-08T10:11:24;14.68;;;12.57;;
36457;SDS011;22480;50.546;12.292;2024-03-08T10:13:51;15.52;;;12.55;;
36457;SDS011;22480;50.546;12.292;2024-03-08T10:16:17;15.90;;;12.85;;
36457;SDS011;22480;50.546;12.292;2024-03-08T10:18:44;16.60;;;12.82;;
36457;SDS011;22480;50.546;12.292;2024-03-08T10:21:11;15.60;;;12.25;;
36457;SDS011;22480;50.546;12.292;2024-03-08T10:23:40;15.43;;;13.00;;
36457;SDS011;22480;50.546;12.292;2024-03-08T10:26:16;15.05;;;12.18;;
36457;SDS011;22480;50.546;12.292;2024-03-08T10:28:45;17.30;;;13.13;;
36457;SDS011;22480;50.546;12.292;2024-03-08T10:31:13;16.90;;;13.57;;
36457;SDS011;22480;50.546;12.292;2024-03-08T10:33:42;15.25;;;12.50;;
36457;SDS011;22480;50.546;12.292;2024-03-08T10:36:09;14.55;;;12.02;;
36457;SDS011;22480;50.546;12.292;2024-03-08T10:38:37;14.18;;;12.05;;
36457;SDS011;22480;50.546;12.292;2024-03-08T10:41:09;13.23;;;11.82;;
36457;SDS011;22480;50.546;12.292;2024-03-08T10:43:51;15.35;;;12.05;;
36457;SDS011;22480;50.546;12.292;2024-03-08T10:47:10;13.90;;;12.00;;
36457;SDS011;22480;50.546;12.292;2024-03-08T10:52:16;18.15;;;13.25;;
36457;SDS011;22480;50.546;12.292;2024-03-08T10:54:43;15.52;;;11.77;;
36457;SDS011;22480;50.546;12.292;2024-03-08T10:57:12;12.73;;;10.48;;
36457;SDS011;22480;50.546;12.292;2024-03-08T10:59:40;17.42;;;10.98;;
36457;SDS011;22480;50.546;12.292;2024-03-08T11:02:09;12.40;;;10.93;;
36457;SDS011;22480;50.546;12.292;2024-03-08T11:04:37;14.70;;;11.65;;
36457;SDS011;22480;50.546;12.292;2024-03-08T11:07:03;13.82;;;11.63;;
36457;SDS011;22480;50.546;12.292;2024-03-08T11:09:35;13.23;;;11.23;;
36457;SDS011;22480;50.546;12.292;2024-03-08T11:14:54;13.65;;;11.40;;
36457;SDS011;22480;50.546;12.292;2024-03-08T11:19:50;12.35;;;10.27;;
36457;SDS011;22480;50.546;12.292;2024-03-08T11:22:25;14.13;;;10.70;;
36457;SDS011;22480;50.546;12.292;2024-03-08T11:24:53;13.63;;;11.30;;
36457;SDS011;22480;50.546;12.292;2024-03-08T11:27:19;14.57;;;11.48;;
36457;SDS011;22480;50.546;12.292;2024-03-08T11:30:03;13.18;;;10.82;;
36457;SDS011;22480;50.546;12.292;2024-03-08T11:32:37;11.95;;;10.40;;
36457;SDS011;22480;50.546;12.292;2024-03-08T11:35:07;13.82;;;11.55;;
36457;SDS011;22480;50.546;12.292;2024-03-08T11:37:34;13.30;;;10.27;;
36457;SDS011;22480;50.546;12.292;2024-03-08T11:40:01;15.48;;;11.30;;
36457;SDS011;22480;50.546;12.292;2024-03-08T11:42:29;13.18;;;11.23;;
36457;SDS011;22480;50.546;12.292;2024-03-08T11:44:55;13.32;;;10.90;;
36457;SDS011;22480;50.546;12.292;2024-03-08T11:47:21;13.88;;;10.10;;
36457;SDS011;22480;50.546;12.292;2024-03-08T11:49:47;12.68;;;10.40;;
36457;SDS011;22480;50.546;12.292;2024-03-08T11:52:14;7.25;;;6.32;;
36457;SDS011;22480;50.546;12.292;2024-03-08T11:54:41;9.98;;;8.05;;
36457;SDS011;22480;50.546;12.292;2024-03-08T11:57:08;10.98;;;8.70;;
36457;SDS011;22480;50.546;12.292;2024-03-08T11:59:35;6.93;;;6.22;;
36457;SDS011;22480;50.546;12.292;2024-03-08T12:02:02;5.93;;;5.22;;
36457;SDS011;22480;50.546;12.292;2024-03-08T12:04:29;6.43;;;5.32;;
36457;SDS011;22480;50.546;12.292;2024-03-08T12:06:56;7.43;;;5.50;;
36457;SDS011;22480;50.546;12.292;2024-03-08T12:09:26;6.40;;;5.53;;
36457;SDS011;22480;50.546;12.292;2024-03-08T12:11:52;7.90;;;5.85;;
36457;SDS011;22480;50.546;12.292;2024-03-08T12:14:17;7.97;;;6.30;;
36457;SDS011;22480;50.546;12.292;2024-03-08T12:16:43;6.82;;;5.70;;
36457;SDS011;22480;50.546;12.292;2024-03-08T12:19:09;7.35;;;5.03;;
36457;SDS011;22480;50.546;12.292;2024-03-08T12:21:35;9.20;;;6.43;;
36457;SDS011;22480;50.546;12.292;2024-03-08T12:24:05;6.85;;;5.78;;
36457;SDS011;22480;50.546;12.292;2024-03-08T12:26:35;7.03;;;6.30;;
36457;SDS011;22480;50.546;12.292;2024-03-08T12:29:21;6.65;;;5.38;;
36457;SDS011;22480;50.546;12.292;2024-03-08T12:31:52;7.40;;;5.82;;
36457;SDS011;22480;50.546;12.292;2024-03-08T12:34:26;6.78;;;5.80;;
36457;SDS011;22480;50.546;12.292;2024-03-08T12:36:57;6.68;;;5.82;;
36457;SDS011;22480;50.546;12.292;2024-03-08T12:39:23;8.88;;;6.30;;
36457;SDS011;22480;50.546;12.292;2024-03-08T12:41:52;7.18;;;5.82;;
36457;SDS011;22480;50.546;12.292;2024-03-08T12:44:19;8.43;;;7.03;;
36457;SDS011;22480;50.546;12.292;2024-03-08T12:46:46;8.57;;;7.18;;
36457;SDS011;22480;50.546;12.292;2024-03-08T12:49:13;7.80;;;6.90;;
36457;SDS011;22480;50.546;12.292;2024-03-08T12:51:45;8.38;;;6.82;;
36457;SDS011;22480;50.546;12.292;2024-03-08T12:54:11;8.20;;;7.32;;
36457;SDS011;22480;50.546;12.292;2024-03-08T12:56:37;9.90;;;7.85;;
36457;SDS011;22480;50.546;12.292;2024-03-08T12:59:03;11.20;;;8.93;;
36457;SDS011;22480;50.546;12.292;2024-03-08T13:01:30;9.65;;;8.27;;
36457;SDS011;22480;50.546;12.292;2024-03-08T13:04:02;10.77;;;9.18;;
36457;SDS011;22480;50.546;12.292;2024-03-08T13:06:28;11.18;;;9.10;;
36457;SDS011;22480;50.546;12.292;2024-03-08T13:08:56;13.13;;;10.27;;
36457;SDS011;22480;50.546;12.292;2024-03-08T13:11:23;11.85;;;9.88;;
36457;SDS011;22480;50.546;12.292;2024-03-08T13:13:49;12.25;;;9.65;;
36457;SDS011;22480;50.546;12.292;2024-03-08T13:16:15;12.60;;;9.88;;
36457;SDS011;22480;50.546;12.292;2024-03-08T13:18:42;13.60;;;10.02;;
36457;SDS011;22480;50.546;12.292;2024-03-08T13:21:08;12.45;;;9.98;;
36457;SDS011;22480;50.546;12.292;2024-03-08T13:23:36;12.82;;;11.00;;
36457;SDS011;22480;50.546;12.292;2024-03-08T13:26:05;14.57;;;10.90;;
36457;SDS011;22480;50.546;12.292;2024-03-08T13:28:32;13.60;;;11.38;;
36457;SDS011;22480;50.546;12.292;2024-03-08T13:31:02;13.37;;;11.23;;
36457;SDS011;22480;50.546;12.292;2024-03-08T13:33:31;15.10;;;12.00;;
36457;SDS011;22480;50.546;12.292;2024-03-08T13:36:01;14.40;;;11.93;;
36457;SDS011;22480;50.546;12.292;2024-03-08T13:38:40;17.63;;;13.85;;
36457;SDS011;22480;50.546;12.292;2024-03-08T13:41:10;19.30;;;12.45;;
36457;SDS011;22480;50.546;12.292;2024-03-08T13:43:37;13.95;;;11.50;;
36457;SDS011;22480;50.546;12.292;2024-03-08T13:46:03;15.63;;;12.05;;
36457;SDS011;22480;50.546;12.292;2024-03-08T13:48:29;13.95;;;12.05;;
36457;SDS011;22480;50.546;12.292;2024-03-08T13:50:56;13.48;;;10.95;;
36457;SDS011;22480;50.546;12.292;2024-03-08T13:53:22;14.63;;;12.38;;
36457;SDS011;22480;50.546;12.292;2024-03-08T13:55:49;13.90;;;12.40;;
36457;SDS011;22480;50.546;12.292;2024-03-08T13:58:15;16.33;;;12.98;;
36457;SDS011;22480;50.546;12.292;2024-03-08T14:00:41;16.85;;;13.77;;
36457;SDS011;22480;50.546;12.292;2024-03-08T14:03:09;16.95;;;13.38;;
36457;SDS011;22480;50.546;12.292;2024-03-08T14:05:41;16.42;;;13.20;;
36457;SDS011;22480;50.546;12.292;2024-03-08T14:08:08;16.30;;;12.90;;
36457;SDS011;22480;50.546;12.292;2024-03-08T14:10:34;15.60;;;13.50;;
36457;SDS011;22480;50.546;12.292;2024-03-08T14:13:02;16.77;;;12.93;;
36457;SDS011;22480;50.546;12.292;2024-03-08T14:15:33;15.02;;;12.98;;
36457;SDS011;22480;50.546;12.292;2024-03-08T14:18:06;17.17;;;13.60;;
36457;SDS011;22480;50.546;12.292;2024-03-08T14:20:32;16.25;;;12.82;;
36457;SDS011;22480;50.546;12.292;2024-03-08T14:22:57;16.42;;;12.07;;